Time,TemperatureF,DewpointF,PressureIn,WindDirection,WindDirectionDegrees,WindSpeedMPH,WindSpeedGustMPH,Humidity,HourlyPrecipIn,Conditions,Clouds,dailyrainin,SoftwareType,DateUTC
2013-09-29 00:01:00,44.4,27.4,29.09,North,0,1.1,0.0,51,0.00,CLR,,0.00,WeatherDisplay:10.37,2013-09-29 08:01:00,
2013-09-29 00:06:00,44.1,27.5,29.09,North,0,0.0,0.0,52,0.00,CLR,,0.00,WeatherDisplay:10.37,2013-09-29 08:06:00,
2013-09-29 00:11:00,43.5,27.5,29.09,North,0,0.0,0.0,53,0.00,CLR,,0.00,WeatherDisplay:10.37,2013-09-29 08:11:00,
2013-09-29 00:16:00,43.3,27.3,29.09,North,0,0.0,0.0,53,0.00,CLR,,0.00,WeatherDisplay:10.37,2013-09-29 08:16:00,
2013-09-29 00:21:00,43.3,26.9,29.09,North,0,0.0,0.0,52,0.00,CLR,,0.00,WeatherDisplay:10.37,2013-09-29 08:21:00,
2013-09-29 00:26:00,43.3,27.3,29.09,North,0,0.0,0.0,53,0.00,CLR,,0.00,WeatherDisplay:10.37,2013-09-29 08:26:00,
2013-09-29 00:31:00,43.0,27.0,29.12,North,0,0.0,0.0,53,0.00,CLR,,0.00,WeatherDisplay:10.37,2013-09-29 08:31:00,
2013-09-29 00:36:00,43.0,27.0,29.12,North,0,0.0,0.0,53,0.00,CLR,,0.00,WeatherDisplay:10.37,2013-09-29 08:36:00,
2013-09-29 00:41:00,43.0,26.5,29.12,North,0,0.0,0.0,52,0.00,CLR,,0.00,WeatherDisplay:10.37,2013-09-29 08:41:00,
2013-09-29 00:46:00,43.2,26.2,29.12,North,0,0.0,0.0,51,0.00,CLR,,0.00,WeatherDisplay:10.37,2013-09-29 08:46:00,
2013-09-29 00:51:00,43.2,26.2,29.12,North,0,0.0,0.0,51,0.00,CLR,,0.00,WeatherDisplay:10.37,2013-09-29 08:51:00,
2013-09-29 00:56:00,43.2,26.2,29.12,North,0,0.0,0.0,51,0.00,CLR,,0.00,WeatherDisplay:10.37,2013-09-29 08:56:00,
2013-09-29 01:01:00,43.0,26.5,29.12,North,0,0.0,0.0,52,0.00,CLR,,0.00,WeatherDisplay:10.37,2013-09-29 09:01:00,
2013-09-29 01:06:00,42.6,26.7,29.12,North,0,0.0,0.0,53,0.00,CLR,,0.00,WeatherDisplay:10.37,2013-09-29 09:06:00,
2013-09-29 01:11:00,43.0,26.1,29.12,North,0,0.0,0.0,51,0.00,CLR,,0.00,WeatherDisplay:10.37,2013-09-29 09:11:00,
2013-09-29 01:16:00,43.3,25.9,29.12,North,0,0.0,0.0,50,0.00,CLR,,0.00,WeatherDisplay:10.37,2013-09-29 09:16:00,
2013-09-29 01:21:00,43.2,26.2,29.12,North,0,0.0,0.0,51,0.00,CLR,,0.00,WeatherDisplay:10.37,2013-09-29 09:21:00,
2013-09-29 01:26:00,43.3,25.4,29.12,North,0,0.0,0.0,49,0.00,CLR,,0.00,WeatherDisplay:10.37,2013-09-29 09:26:00,
2013-09-29 01:31:00,43.0,25.6,29.12,North,0,0.0,0.0,50,0.00,CLR,,0.00,WeatherDisplay:10.37,2013-09-29 09:31:00,
2013-09-29 01:36:00,43.7,25.8,29.12,North,0,0.0,0.0,49,0.00,CLR,,0.00,WeatherDisplay:10.37,2013-09-29 09:36:00,
2013-09-29 01:41:00,43.3,25.9,29.12,North,0,0.0,0.0,50,0.00,CLR,,0.00,WeatherDisplay:10.37,2013-09-29 09:41:00,
2013-09-29 01:46:00,42.8,25.9,29.12,North,0,0.0,0.0,51,0.00,CLR,,0.00,WeatherDisplay:10.37,2013-09-29 09:46:00,
2013-09-29 01:51:00,42.4,25.6,29.12,North,0,0.0,0.0,51,0.00,CLR,,0.00,WeatherDisplay:10.37,2013-09-29 09:51:00,
2013-09-29 01:56:00,42.8,25.9,29.12,North,0,0.0,0.0,51,0.00,CLR,,0.00,WeatherDisplay:10.37,2013-09-29 09:56:00,
2013-09-29 02:01:00,43.2,25.3,29.12,North,0,0.0,0.0,49,0.00,CLR,,0.00,WeatherDisplay:10.37,2013-09-29 10:01:00,
2013-09-29 02:06:00,43.3,24.9,29.12,North,0,0.0,0.0,48,0.00,CLR,,0.00,WeatherDisplay:10.37,2013-09-29 10:06:00,
2013-09-29 02:11:00,43.2,25.3,29.12,North,0,0.0,0.0,49,0.00,CLR,,0.00,WeatherDisplay:10.37,2013-09-29 10:11:00,
2013-09-29 02:16:00,43.0,24.6,29.12,North,0,0.0,0.0,48,0.00,CLR,,0.00,WeatherDisplay:10.37,2013-09-29 10:16:00,
2013-09-29 02:21:00,43.2,24.8,29.12,North,0,0.0,0.0,48,0.00,CLR,,0.00,WeatherDisplay:10.37,2013-09-29 10:21:00,
2013-09-29 02:26:00,43.3,24.9,29.12,North,0,0.0,0.0,48,0.00,CLR,,0.00,WeatherDisplay:10.37,2013-09-29 10:26:00,
2013-09-29 02:31:00,43.3,24.4,29.12,North,0,0.0,0.0,47,0.00,CLR,,0.00,WeatherDisplay:10.37,2013-09-29 10:31:00,
2013-09-29 02:36:00,43.3,24.9,29.12,North,0,0.0,0.0,48,0.00,CLR,,0.00,WeatherDisplay:10.37,2013-09-29 10:36:00,
2013-09-29 02:41:00,43.2,24.8,29.12,North,0,0.0,0.0,48,0.00,CLR,,0.00,WeatherDisplay:10.37,2013-09-29 10:41:00,
2013-09-29 02:46:00,42.8,24.4,29.12,North,0,0.0,0.0,48,0.00,CLR,,0.00,WeatherDisplay:10.37,2013-09-29 10:46:00,
2013-09-29 02:51:00,42.8,24.4,29.12,North,0,0.0,0.0,48,0.00,CLR,,0.00,WeatherDisplay:10.37,2013-09-29 10:51:00,
2013-09-29 02:56:00,42.8,24.4,29.12,North,0,0.0,0.0,48,0.00,CLR,,0.00,WeatherDisplay:10.37,2013-09-29 10:56:00,
2013-09-29 03:01:00,42.6,24.8,29.15,North,0,0.0,0.0,49,0.00,CLR,,0.00,WeatherDisplay:10.37,2013-09-29 11:01:00,
2013-09-29 03:06:00,42.4,24.1,29.15,North,0,0.0,0.0,48,0.00,CLR,,0.00,WeatherDisplay:10.37,2013-09-29 11:06:00,
2013-09-29 03:11:00,42.6,24.3,29.15,North,0,0.0,0.0,48,0.00,CLR,,0.00,WeatherDisplay:10.37,2013-09-29 11:11:00,
2013-09-29 03:16:00,42.6,24.3,29.15,North,0,0.0,0.0,48,0.00,CLR,,0.00,WeatherDisplay:10.37,2013-09-29 11:16:00,
2013-09-29 03:21:00,42.6,23.8,29.15,North,0,0.0,0.0,47,0.00,CLR,,0.00,WeatherDisplay:10.37,2013-09-29 11:21:00,
2013-09-29 03:26:00,42.3,24.4,29.15,North,0,0.0,0.0,49,0.00,CLR,,0.00,WeatherDisplay:10.37,2013-09-29 11:26:00,
2013-09-29 03:31:00,42.1,24.3,29.15,North,0,0.0,0.0,49,0.00,CLR,,0.00,WeatherDisplay:10.37,2013-09-29 11:31:00,
2013-09-29 03:36:00,42.1,24.3,29.15,North,0,0.0,0.0,49,0.00,CLR,,0.00,WeatherDisplay:10.37,2013-09-29 11:36:00,
2013-09-29 03:41:00,41.9,24.6,29.15,North,0,0.0,0.0,50,0.00,CLR,,0.00,WeatherDisplay:10.37,2013-09-29 11:41:00,
2013-09-29 03:46:00,41.9,24.6,29.15,North,0,0.0,0.0,50,0.00,CLR,,0.00,WeatherDisplay:10.37,2013-09-29 11:46:00,
2013-09-29 03:51:00,41.9,24.6,29.15,North,0,0.0,0.0,50,0.00,CLR,,0.00,WeatherDisplay:10.37,2013-09-29 11:51:00,
2013-09-29 03:56:00,41.9,24.1,29.15,North,0,0.0,0.0,49,0.00,CLR,,0.00,WeatherDisplay:10.37,2013-09-29 11:56:00,
2013-09-29 04:01:00,41.7,24.4,29.15,North,0,0.0,0.0,50,0.00,CLR,,0.00,WeatherDisplay:10.37,2013-09-29 12:01:00,
2013-09-29 04:06:00,41.5,24.7,29.15,North,0,0.0,0.0,51,0.00,CLR,,0.00,WeatherDisplay:10.37,2013-09-29 12:06:00,
2013-09-29 04:11:00,41.7,24.4,29.15,North,0,0.0,0.0,50,0.00,CLR,,0.00,WeatherDisplay:10.37,2013-09-29 12:11:00,
2013-09-29 04:16:00,41.5,24.7,29.15,North,0,0.0,0.0,51,0.00,CLR,,0.00,WeatherDisplay:10.37,2013-09-29 12:16:00,
2013-09-29 04:21:00,41.2,24.9,29.15,North,0,0.0,0.0,52,0.00,CLR,,0.00,WeatherDisplay:10.37,2013-09-29 12:21:00,
2013-09-29 04:26:00,41.2,25.3,29.15,North,0,0.0,0.0,53,0.00,CLR,,0.00,WeatherDisplay:10.37,2013-09-29 12:26:00,
2013-09-29 04:31:00,40.8,25.9,29.15,North,0,0.0,0.0,55,0.00,CLR,,0.00,WeatherDisplay:10.37,2013-09-29 12:31:00,
2013-09-29 04:36:00,40.5,25.5,29.15,North,0,0.0,0.0,55,0.00,CLR,,0.00,WeatherDisplay:10.37,2013-09-29 12:36:00,
2013-09-29 04:41:00,40.1,25.6,29.15,North,0,0.0,0.0,56,0.00,CLR,,0.00,WeatherDisplay:10.37,2013-09-29 12:41:00,
2013-09-29 04:46:00,40.8,24.5,29.15,North,0,0.0,0.0,52,0.00,CLR,,0.00,WeatherDisplay:10.37,2013-09-29 12:46:00,
2013-09-29 04:51:00,40.8,25.9,29.15,North,0,0.0,0.0,55,0.00,CLR,,0.00,WeatherDisplay:10.37,2013-09-29 12:51:00,
2013-09-29 04:56:00,41.0,25.2,29.15,North,0,0.0,0.0,53,0.00,CLR,,0.00,WeatherDisplay:10.37,2013-09-29 12:56:00,
2013-09-29 05:01:00,40.8,25.4,29.15,North,0,0.0,0.0,54,0.00,CLR,,0.00,WeatherDisplay:10.37,2013-09-29 13:01:00,
2013-09-29 05:06:00,41.4,24.6,29.15,North,0,0.0,0.0,51,0.00,CLR,,0.00,WeatherDisplay:10.37,2013-09-29 13:06:00,
2013-09-29 05:11:00,41.9,24.6,29.15,North,0,0.0,0.0,50,0.00,CLR,,0.00,WeatherDisplay:10.37,2013-09-29 13:11:00,
2013-09-29 05:16:00,41.9,25.1,29.15,North,0,0.0,0.0,51,0.00,CLR,,0.00,WeatherDisplay:10.37,2013-09-29 13:16:00,
2013-09-29 05:21:00,41.5,24.7,29.15,North,0,0.0,0.0,51,0.00,CLR,,0.00,WeatherDisplay:10.37,2013-09-29 13:21:00,
2013-09-29 05:26:00,41.5,24.7,29.15,North,0,0.0,0.0,51,0.00,CLR,,0.00,WeatherDisplay:10.37,2013-09-29 13:26:00,
2013-09-29 05:31:00,41.7,24.9,29.15,North,0,0.0,0.0,51,0.00,CLR,,0.00,WeatherDisplay:10.37,2013-09-29 13:31:00,
2013-09-29 05:36:00,42.1,24.8,29.15,North,0,0.0,0.0,50,0.00,CLR,,0.00,WeatherDisplay:10.37,2013-09-29 13:36:00,
2013-09-29 05:41:00,42.1,24.8,29.15,North,0,0.0,0.0,50,0.00,CLR,,0.00,WeatherDisplay:10.37,2013-09-29 13:41:00,
2013-09-29 05:46:00,41.9,25.1,29.15,North,0,0.0,0.0,51,0.00,CLR,,0.00,WeatherDisplay:10.37,2013-09-29 13:46:00,
2013-09-29 05:51:00,41.7,24.9,29.15,North,0,0.0,0.0,51,0.00,CLR,,0.00,WeatherDisplay:10.37,2013-09-29 13:51:00,
2013-09-29 05:56:00,41.7,24.9,29.15,North,0,0.0,0.0,51,0.00,CLR,,0.00,WeatherDisplay:10.37,2013-09-29 13:56:00,
2013-09-29 06:01:00,41.5,25.2,29.18,North,0,0.0,0.0,52,0.00,CLR,,0.00,WeatherDisplay:10.37,2013-09-29 14:01:00,
2013-09-29 06:06:00,41.2,25.3,29.18,North,0,0.0,0.0,53,0.00,CLR,,0.00,WeatherDisplay:10.37,2013-09-29 14:06:00,
2013-09-29 06:11:00,40.6,24.8,29.18,North,0,0.0,0.0,53,0.00,CLR,,0.00,WeatherDisplay:10.37,2013-09-29 14:11:00,
2013-09-29 06:17:00,40.3,24.5,29.18,North,0,0.0,0.0,53,0.00,CLR,,0.00,WeatherDisplay:10.37,2013-09-29 14:17:00,
2013-09-29 06:23:00,39.6,24.7,29.18,North,0,0.0,0.0,55,0.00,CLR,,0.00,WeatherDisplay:10.37,2013-09-29 14:23:00,
2013-09-29 06:28:00,39.4,25.0,29.18,North,0,0.0,0.0,56,0.00,CLR,,0.00,WeatherDisplay:10.37,2013-09-29 14:28:00,
2013-09-29 06:33:00,38.8,25.7,29.18,North,0,0.0,0.0,59,0.00,CLR,,0.00,WeatherDisplay:10.37,2013-09-29 14:33:00,
2013-09-29 06:38:00,38.7,26.0,29.18,North,0,0.0,0.0,60,0.00,CLR,,0.00,WeatherDisplay:10.37,2013-09-29 14:38:00,
2013-09-29 06:43:00,38.5,25.8,29.18,North,0,0.0,0.0,60,0.00,CLR,,0.00,WeatherDisplay:10.37,2013-09-29 14:43:00,
2013-09-29 06:48:00,38.5,26.6,29.18,North,0,0.0,0.0,62,0.00,CLR,,0.00,WeatherDisplay:10.37,2013-09-29 14:48:00,
2013-09-29 06:53:00,38.5,26.6,29.18,North,0,0.0,0.0,62,0.00,CLR,,0.00,WeatherDisplay:10.37,2013-09-29 14:53:00,
2013-09-29 06:58:00,38.7,27.1,29.18,North,0,0.0,0.0,63,0.00,CLR,,0.00,WeatherDisplay:10.37,2013-09-29 14:58:00,
2013-09-29 07:03:00,38.7,27.5,29.18,North,0,0.0,0.0,64,0.00,CLR,,0.00,WeatherDisplay:10.37,2013-09-29 15:03:00,
2013-09-29 07:08:00,38.7,27.9,29.18,North,0,0.0,0.0,65,0.00,CLR,,0.00,WeatherDisplay:10.37,2013-09-29 15:08:00,
2013-09-29 07:13:00,38.7,28.3,29.18,North,0,0.0,0.0,66,0.00,CLR,,0.00,WeatherDisplay:10.37,2013-09-29 15:13:00,
2013-09-29 07:18:00,38.7,28.3,29.18,North,0,0.0,0.0,66,0.00,CLR,,0.00,WeatherDisplay:10.37,2013-09-29 15:18:00,
2013-09-29 07:23:00,38.7,28.3,29.18,North,0,0.0,0.0,66,0.00,CLR,,0.00,WeatherDisplay:10.37,2013-09-29 15:23:00,
2013-09-29 07:28:00,38.7,28.6,29.18,North,0,0.0,0.0,67,0.00,CLR,,0.00,WeatherDisplay:10.37,2013-09-29 15:28:00,
2013-09-29 07:33:00,38.5,28.5,29.18,North,0,0.0,0.0,67,0.00,CLR,,0.00,WeatherDisplay:10.37,2013-09-29 15:33:00,
2013-09-29 07:38:00,38.5,28.5,29.18,North,0,0.0,0.0,67,0.00,CLR,,0.00,WeatherDisplay:10.37,2013-09-29 15:38:00,
2013-09-29 07:43:00,38.5,28.8,29.18,North,0,0.0,0.0,68,0.00,CLR,,0.00,WeatherDisplay:10.37,2013-09-29 15:43:00,
2013-09-29 07:48:00,38.3,28.7,29.18,North,0,0.0,0.0,68,0.00,CLR,,0.00,WeatherDisplay:10.37,2013-09-29 15:48:00,
2013-09-29 07:53:00,38.1,28.5,29.18,North,0,0.0,0.0,68,0.00,CLR,,0.00,WeatherDisplay:10.37,2013-09-29 15:53:00,
2013-09-29 07:58:00,37.9,28.7,29.18,North,0,0.0,0.0,69,0.00,CLR,,0.00,WeatherDisplay:10.37,2013-09-29 15:58:00,
2013-09-29 08:03:00,37.8,28.5,29.18,North,0,0.0,0.0,69,0.00,CLR,,0.00,WeatherDisplay:10.37,2013-09-29 16:03:00,
2013-09-29 08:08:00,37.6,28.3,29.18,North,0,0.0,0.0,69,0.00,CLR,,0.00,WeatherDisplay:10.37,2013-09-29 16:08:00,
2013-09-29 08:13:00,37.9,29.4,29.18,North,0,0.0,0.0,71,0.00,CLR,,0.00,WeatherDisplay:10.37,2013-09-29 16:13:00,
2013-09-29 08:18:00,38.1,29.9,29.18,North,0,0.0,0.0,72,0.00,CLR,,0.00,WeatherDisplay:10.37,2013-09-29 16:18:00,
2013-09-29 08:23:00,38.1,29.9,29.18,North,0,0.0,0.0,72,0.00,CLR,,0.00,WeatherDisplay:10.37,2013-09-29 16:23:00,
2013-09-29 08:28:00,38.5,30.2,29.18,North,0,0.0,0.0,72,0.00,CLR,,0.00,WeatherDisplay:10.37,2013-09-29 16:28:00,
2013-09-29 08:33:00,38.7,30.7,29.20,North,0,0.0,0.0,73,0.00,CLR,,0.00,WeatherDisplay:10.37,2013-09-29 16:33:00,
2013-09-29 08:38:00,38.8,30.9,29.20,North,0,0.0,0.0,73,0.00,CLR,,0.00,WeatherDisplay:10.37,2013-09-29 16:38:00,
2013-09-29 08:43:00,39.4,31.4,29.20,North,0,0.0,0.0,73,0.00,CLR,,0.00,WeatherDisplay:10.37,2013-09-29 16:43:00,
2013-09-29 08:48:00,39.7,31.8,29.20,North,0,0.0,0.0,73,0.00,CLR,,0.00,WeatherDisplay:10.37,2013-09-29 16:48:00,
2013-09-29 08:53:00,39.9,32.0,29.20,North,0,0.0,0.0,73,0.00,CLR,,0.00,WeatherDisplay:10.37,2013-09-29 16:53:00,
2013-09-29 08:58:00,40.3,32.0,29.20,North,0,0.0,0.0,72,0.00,CLR,,0.00,WeatherDisplay:10.37,2013-09-29 16:58:00,
2013-09-29 09:03:00,40.5,31.8,29.20,North,0,0.0,0.0,71,0.00,CLR,,0.00,WeatherDisplay:10.37,2013-09-29 17:03:00,
2013-09-29 09:08:00,40.6,31.6,29.20,North,0,0.0,0.0,70,0.00,CLR,,0.00,WeatherDisplay:10.37,2013-09-29 17:08:00,
2013-09-29 09:13:00,40.8,31.4,29.20,North,0,0.0,0.0,69,0.00,CLR,,0.00,WeatherDisplay:10.37,2013-09-29 17:13:00,
2013-09-29 09:18:00,41.2,31.8,29.20,North,0,0.0,0.0,69,0.00,CLR,,0.00,WeatherDisplay:10.37,2013-09-29 17:18:00,
2013-09-29 09:23:00,41.5,32.1,29.20,North,0,0.0,0.0,69,0.00,CLR,,0.00,WeatherDisplay:10.37,2013-09-29 17:23:00,
2013-09-29 09:28:00,41.7,32.3,29.20,North,0,0.0,0.0,69,0.00,CLR,,0.00,WeatherDisplay:10.37,2013-09-29 17:28:00,
2013-09-29 09:33:00,42.1,32.6,29.20,North,0,0.0,0.0,69,0.00,CLR,,0.00,WeatherDisplay:10.37,2013-09-29 17:33:00,
2013-09-29 09:38:00,42.3,32.8,29.20,North,0,0.0,0.0,69,0.00,CLR,,0.00,WeatherDisplay:10.37,2013-09-29 17:38:00,
2013-09-29 09:43:00,42.4,32.6,29.20,North,0,0.0,0.0,68,0.00,CLR,,0.00,WeatherDisplay:10.37,2013-09-29 17:43:00,
2013-09-29 09:48:00,42.6,32.8,29.20,North,0,0.0,0.0,68,0.00,CLR,,0.00,WeatherDisplay:10.37,2013-09-29 17:48:00,
2013-09-29 09:53:00,42.6,32.4,29.20,North,0,0.0,0.0,67,0.00,CLR,,0.00,WeatherDisplay:10.37,2013-09-29 17:53:00,
2013-09-29 09:58:00,42.6,32.0,29.20,North,0,0.0,0.0,66,0.00,CLR,,0.00,WeatherDisplay:10.37,2013-09-29 17:58:00,
2013-09-29 10:03:00,42.6,31.7,29.20,North,0,0.0,0.0,65,0.00,CLR,,0.00,WeatherDisplay:10.37,2013-09-29 18:03:00,
2013-09-29 10:08:00,42.6,30.9,29.20,North,0,0.0,0.0,63,0.00,CLR,,0.00,WeatherDisplay:10.37,2013-09-29 18:08:00,
2013-09-29 10:13:00,42.8,30.7,29.20,North,0,0.0,0.0,62,0.00,CLR,,0.00,WeatherDisplay:10.37,2013-09-29 18:13:00,
2013-09-29 10:18:00,43.2,28.1,29.20,North,0,0.0,0.0,55,0.00,CLR,,0.00,WeatherDisplay:10.37,2013-09-29 18:18:00,
2013-09-29 10:23:00,44.1,29.4,29.20,North,0,0.0,0.0,56,0.00,CLR,,0.00,WeatherDisplay:10.37,2013-09-29 18:23:00,
2013-09-29 10:28:00,45.0,30.6,29.20,North,0,0.0,0.0,57,0.00,CLR,,0.00,WeatherDisplay:10.37,2013-09-29 18:28:00,
2013-09-29 10:33:00,45.7,31.3,29.20,North,0,0.0,0.0,57,0.00,CLR,,0.00,WeatherDisplay:10.37,2013-09-29 18:33:00,
2013-09-29 10:38:00,46.6,28.9,29.20,North,0,0.0,0.0,50,0.00,CLR,,0.00,WeatherDisplay:10.37,2013-09-29 18:38:00,
2013-09-29 10:43:00,47.8,31.5,29.20,North,0,0.0,0.0,53,0.00,CLR,,0.00,WeatherDisplay:10.37,2013-09-29 18:43:00,
2013-09-29 10:48:00,50.4,32.9,29.20,North,0,0.0,0.0,51,0.00,CLR,,0.00,WeatherDisplay:10.37,2013-09-29 18:48:00,
2013-09-29 10:53:00,51.8,32.7,29.20,North,0,0.0,0.0,48,0.00,CLR,,0.00,WeatherDisplay:10.37,2013-09-29 18:53:00,
2013-09-29 10:58:00,52.7,33.5,29.20,North,0,0.0,0.0,48,0.00,CLR,,0.00,WeatherDisplay:10.37,2013-09-29 18:58:00,
2013-09-29 11:03:00,53.4,32.6,29.20,North,0,0.0,0.0,45,0.00,CLR,,0.00,WeatherDisplay:10.37,2013-09-29 19:03:00,
2013-09-29 11:08:00,53.2,33.0,29.20,North,0,0.0,0.0,46,0.00,CLR,,0.00,WeatherDisplay:10.37,2013-09-29 19:08:00,
2013-09-29 11:13:00,50.7,29.6,29.20,West,270,1.1,0.0,44,0.00,CLR,,0.00,WeatherDisplay:10.37,2013-09-29 19:13:00,
2013-09-29 11:18:00,49.6,29.7,29.24,WSW,248,0.0,0.0,46,0.00,CLR,,0.00,WeatherDisplay:10.37,2013-09-29 19:18:00,
2013-09-29 11:23:00,48.7,28.3,29.24,West,270,0.0,0.0,45,0.00,CLR,,0.00,WeatherDisplay:10.37,2013-09-29 19:23:00,
2013-09-29 11:28:00,48.2,28.4,29.24,SW,225,0.0,0.0,46,0.00,CLR,,0.00,WeatherDisplay:10.37,2013-09-29 19:28:00,
2013-09-29 11:33:00,47.8,28.6,29.20,SW,225,0.0,0.0,47,0.00,CLR,,0.00,WeatherDisplay:10.37,2013-09-29 19:33:00,
2013-09-29 11:38:00,49.1,29.7,29.20,WSW,248,0.0,0.0,47,0.00,CLR,,0.00,WeatherDisplay:10.37,2013-09-29 19:38:00,
2013-09-29 11:43:00,51.3,31.7,29.20,East,90,0.9,0.0,47,0.00,CLR,,0.00,WeatherDisplay:10.37,2013-09-29 19:43:00,
2013-09-29 11:48:00,52.2,32.5,29.20,West,270,1.1,0.0,47,0.00,CLR,,0.00,WeatherDisplay:10.37,2013-09-29 19:48:00,
2013-09-29 11:53:00,50.7,30.7,29.20,WSW,248,0.0,0.0,46,0.00,CLR,,0.00,WeatherDisplay:10.37,2013-09-29 19:53:00,
2013-09-29 11:58:00,51.3,30.6,29.20,WSW,248,0.0,0.0,45,0.00,CLR,,0.00,WeatherDisplay:10.37,2013-09-29 19:58:00,
2013-09-29 12:03:00,51.8,31.7,29.24,WSW,248,0.0,0.0,46,0.00,CLR,,0.00,WeatherDisplay:10.37,2013-09-29 20:03:00,
2013-09-29 12:08:00,53.8,31.8,29.24,WSW,248,0.0,0.0,43,0.00,CLR,,0.00,WeatherDisplay:10.37,2013-09-29 20:08:00,
2013-09-29 12:13:00,53.6,32.2,29.24,WSW,248,0.0,0.0,44,0.00,CLR,,0.00,WeatherDisplay:10.37,2013-09-29 20:13:00,
2013-09-29 12:18:00,54.1,30.9,29.24,NNE,22,2.3,2.3,41,0.00,CLR,,0.00,WeatherDisplay:10.37,2013-09-29 20:18:00,
2013-09-29 12:23:00,54.1,30.3,29.24,NNE,22,2.3,2.3,40,0.00,CLR,,0.00,WeatherDisplay:10.37,2013-09-29 20:23:00,
2013-09-29 12:28:00,54.5,30.0,29.24,NW,315,3.5,3.5,39,0.00,CLR,,0.00,WeatherDisplay:10.37,2013-09-29 20:28:00,
2013-09-29 12:33:00,54.5,31.3,29.24,North,0,2.0,0.0,41,0.00,CLR,,0.00,WeatherDisplay:10.37,2013-09-29 20:33:00,
2013-09-29 12:38:00,54.7,31.4,29.24,NNE,22,0.0,0.0,41,0.00,CLR,,0.00,WeatherDisplay:10.37,2013-09-29 20:38:00,
2013-09-29 12:43:00,55.4,30.8,29.24,NNW,338,1.1,0.0,39,0.00,CLR,,0.00,WeatherDisplay:10.37,2013-09-29 20:43:00,
2013-09-29 12:48:00,55.2,30.0,29.20,NNE,22,3.5,3.5,38,0.00,CLR,,0.00,WeatherDisplay:10.37,2013-09-29 20:48:00,
2013-09-29 12:53:00,54.3,30.5,29.20,WSW,248,1.1,1.4,40,0.00,CLR,,0.00,WeatherDisplay:10.37,2013-09-29 20:53:00,
2013-09-29 12:58:00,54.9,31.0,29.20,West,270,0.0,0.0,40,0.00,CLR,,0.00,WeatherDisplay:10.37,2013-09-29 20:58:00,
2013-09-29 13:03:00,55.4,31.5,29.20,WNW,292,1.6,1.6,40,0.00,CLR,,0.00,WeatherDisplay:10.37,2013-09-29 21:03:00,
2013-09-29 13:08:00,55.6,31.6,29.20,West,270,0.0,0.0,40,0.00,CLR,,0.00,WeatherDisplay:10.37,2013-09-29 21:08:00,
2013-09-29 13:13:00,55.8,31.8,29.20,West,270,0.0,0.0,40,0.00,CLR,,0.00,WeatherDisplay:10.37,2013-09-29 21:13:00,
2013-09-29 13:18:00,55.8,31.8,29.24,West,270,0.0,0.0,40,0.00,CLR,,0.00,WeatherDisplay:10.37,2013-09-29 21:18:00,
2013-09-29 13:23:00,56.7,32.6,29.24,West,270,0.0,0.0,40,0.00,CLR,,0.00,WeatherDisplay:10.37,2013-09-29 21:23:00,
2013-09-29 13:28:00,57.2,32.4,29.24,West,270,0.0,0.0,39,0.00,CLR,,0.00,WeatherDisplay:10.37,2013-09-29 21:28:00,
2013-09-29 13:33:00,57.0,32.3,29.20,West,270,0.0,0.0,39,0.00,CLR,,0.00,WeatherDisplay:10.37,2013-09-29 21:33:00,
2013-09-29 13:38:00,56.7,32.0,29.20,WSW,248,0.0,0.0,39,0.00,CLR,,0.00,WeatherDisplay:10.37,2013-09-29 21:38:00,
2013-09-29 13:43:00,54.5,29.4,29.20,North,0,1.4,0.0,38,0.00,CLR,,0.00,WeatherDisplay:10.37,2013-09-29 21:43:00,
2013-09-29 13:48:00,53.1,28.7,29.20,East,90,2.3,0.0,39,0.00,CLR,,0.00,WeatherDisplay:10.37,2013-09-29 21:48:00,
2013-09-29 13:53:00,52.2,27.9,29.20,NNE,22,2.3,2.3,39,0.00,CLR,,0.00,WeatherDisplay:10.37,2013-09-29 21:53:00,
2013-09-29 13:58:00,51.6,27.4,29.20,NNE,22,0.0,1.4,39,0.00,CLR,,0.00,WeatherDisplay:10.37,2013-09-29 21:58:00,
2013-09-29 14:03:00,51.6,27.4,29.24,NNE,22,0.0,1.4,39,0.00,CLR,,0.00,WeatherDisplay:10.37,2013-09-29 22:03:00,
2013-09-29 14:08:00,51.4,27.9,29.24,ENE,68,0.0,0.0,40,0.00,CLR,,0.00,WeatherDisplay:10.37,2013-09-29 22:08:00,
2013-09-29 14:13:00,51.3,28.3,29.24,ENE,68,0.0,0.0,41,0.00,CLR,,0.00,WeatherDisplay:10.37,2013-09-29 22:13:00,
2013-09-29 14:18:00,51.1,28.8,29.20,ENE,68,0.0,0.0,42,0.00,CLR,,0.00,WeatherDisplay:10.37,2013-09-29 22:18:00,
2013-09-29 14:23:00,50.9,29.2,29.20,ENE,68,2.3,2.3,43,0.00,CLR,,0.00,WeatherDisplay:10.37,2013-09-29 22:23:00,
2013-09-29 14:28:00,50.7,29.0,29.20,ENE,68,2.3,2.3,43,0.00,CLR,,0.00,WeatherDisplay:10.37,2013-09-29 22:28:00,
2013-09-29 14:33:00,50.9,29.7,29.20,ENE,68,2.3,2.3,44,0.00,CLR,,0.00,WeatherDisplay:10.37,2013-09-29 22:33:00,
2013-09-29 14:38:00,50.9,29.2,29.20,NE,45,4.9,4.9,43,0.00,CLR,,0.00,WeatherDisplay:10.37,2013-09-29 22:38:00,
2013-09-29 14:43:00,50.5,28.8,29.20,NE,45,4.9,4.9,43,0.00,CLR,,0.00,WeatherDisplay:10.37,2013-09-29 22:43:00,
2013-09-29 14:48:00,50.4,28.7,29.20,ESE,112,1.6,2.9,43,0.00,CLR,,0.00,WeatherDisplay:10.37,2013-09-29 22:48:00,
2013-09-29 14:53:00,50.4,28.7,29.20,ESE,112,2.3,3.1,43,0.00,CLR,,0.00,WeatherDisplay:10.37,2013-09-29 22:53:00,
2013-09-29 14:58:00,50.4,28.7,29.20,ESE,112,2.9,3.1,43,0.00,CLR,,0.00,WeatherDisplay:10.37,2013-09-29 22:58:00,
2013-09-29 15:03:00,50.5,28.8,29.20,ESE,112,2.9,3.1,43,0.00,CLR,,0.00,WeatherDisplay:10.37,2013-09-29 23:03:00,
2013-09-29 15:08:00,50.7,29.6,29.20,ESE,112,2.9,3.1,44,0.00,CLR,,0.00,WeatherDisplay:10.37,2013-09-29 23:08:00,
2013-09-29 15:13:00,50.5,30.5,29.20,ESE,112,2.9,3.1,46,0.00,CLR,,0.00,WeatherDisplay:10.37,2013-09-29 23:13:00,
2013-09-29 15:18:00,50.5,30.5,29.20,ESE,112,1.4,3.1,46,0.00,CLR,,0.00,WeatherDisplay:10.37,2013-09-29 23:18:00,
2013-09-29 15:23:00,50.7,31.2,29.20,ESE,112,1.4,3.1,47,0.00,CLR,,0.00,WeatherDisplay:10.37,2013-09-29 23:23:00,
2013-09-29 15:28:00,51.1,31.5,29.20,SSW,202,0.0,0.0,47,0.00,CLR,,0.00,WeatherDisplay:10.37,2013-09-29 23:28:00,
2013-09-29 15:34:00,51.3,31.2,29.20,SSW,202,0.0,0.0,46,0.00,CLR,,0.00,WeatherDisplay:10.37,2013-09-29 23:34:00,
2013-09-29 15:39:00,51.4,31.9,29.20,SSW,202,0.0,0.0,47,0.00,CLR,,0.00,WeatherDisplay:10.37,2013-09-29 23:39:00,
2013-09-29 15:44:00,51.4,30.8,29.24,SSW,202,0.0,0.0,45,0.00,CLR,,0.00,WeatherDisplay:10.37,2013-09-29 23:44:00,
2013-09-29 15:49:00,51.3,30.6,29.24,SSW,202,0.0,0.0,45,0.00,CLR,,0.00,WeatherDisplay:10.37,2013-09-29 23:49:00,
2013-09-29 15:54:00,51.4,31.9,29.24,SSW,202,0.0,0.0,47,0.00,CLR,,0.00,WeatherDisplay:10.37,2013-09-29 23:54:00,
2013-09-29 15:59:00,51.6,31.5,29.24,SSW,202,0.0,0.0,46,0.00,CLR,,0.00,WeatherDisplay:10.37,2013-09-29 23:59:00,
2013-09-29 16:04:00,51.6,32.0,29.24,SSW,202,0.0,0.0,47,0.00,CLR,,0.00,WeatherDisplay:10.37,2013-09-30 00:04:00,
2013-09-29 16:09:00,51.4,31.9,29.24,SSW,202,0.0,0.0,47,0.00,CLR,,0.00,WeatherDisplay:10.37,2013-09-30 00:09:00,
2013-09-29 16:14:00,51.4,31.9,29.24,SSW,202,0.0,0.0,47,0.00,CLR,,0.00,WeatherDisplay:10.37,2013-09-30 00:14:00,
2013-09-29 16:19:00,51.3,31.7,29.24,SSW,202,0.0,0.0,47,0.00,CLR,,0.00,WeatherDisplay:10.37,2013-09-30 00:19:00,
2013-09-29 16:24:00,51.4,32.4,29.24,SSW,202,0.0,0.0,48,0.00,CLR,,0.00,WeatherDisplay:10.37,2013-09-30 00:24:00,
2013-09-29 16:29:00,51.4,32.4,29.24,SSW,202,0.0,0.0,48,0.00,CLR,,0.00,WeatherDisplay:10.37,2013-09-30 00:29:00,
2013-09-29 16:34:00,51.4,32.4,29.24,SSW,202,0.0,0.0,48,0.00,CLR,,0.00,WeatherDisplay:10.37,2013-09-30 00:34:00,
2013-09-29 16:40:00,51.3,32.2,29.24,SSW,202,0.0,0.0,48,0.00,CLR,,0.00,WeatherDisplay:10.37,2013-09-30 00:40:00,
2013-09-29 16:45:00,50.9,31.9,29.24,SSW,202,0.0,0.0,48,0.00,CLR,,0.00,WeatherDisplay:10.37,2013-09-30 00:45:00,
2013-09-29 16:50:00,50.9,31.9,29.24,SSW,202,0.0,0.0,48,0.00,CLR,,0.00,WeatherDisplay:10.37,2013-09-30 00:50:00,
2013-09-29 16:55:00,50.9,32.4,29.24,SSW,202,0.0,0.0,49,0.00,CLR,,0.00,WeatherDisplay:10.37,2013-09-30 00:55:00,
2013-09-29 17:00:00,51.1,32.6,29.24,SSW,202,0.0,0.0,49,0.00,CLR,,0.00,WeatherDisplay:10.37,2013-09-30 01:00:00,
2013-09-29 17:05:00,51.3,32.7,29.24,SSW,202,0.0,0.0,49,0.00,CLR,,0.00,WeatherDisplay:10.37,2013-09-30 01:05:00,
2013-09-29 17:10:00,51.1,32.1,29.24,SSW,202,0.0,0.0,48,0.00,CLR,,0.00,WeatherDisplay:10.37,2013-09-30 01:10:00,
2013-09-29 17:15:00,50.9,31.9,29.24,SSW,202,0.0,0.0,48,0.00,CLR,,0.00,WeatherDisplay:10.37,2013-09-30 01:15:00,
2013-09-29 17:20:00,50.7,31.2,29.24,SSW,202,0.0,0.0,47,0.00,CLR,,0.00,WeatherDisplay:10.37,2013-09-30 01:20:00,
2013-09-29 17:25:00,50.9,31.4,29.24,SSW,202,0.0,0.0,47,0.00,CLR,,0.00,WeatherDisplay:10.37,2013-09-30 01:25:00,
2013-09-29 17:30:00,51.1,31.5,29.24,SSW,202,0.0,0.0,47,0.00,CLR,,0.00,WeatherDisplay:10.37,2013-09-30 01:30:00,
2013-09-29 17:35:00,51.3,31.7,29.24,SSW,202,0.0,0.0,47,0.00,CLR,,0.00,WeatherDisplay:10.37,2013-09-30 01:35:00,
2013-09-29 17:40:00,51.4,31.9,29.24,SSW,202,0.0,0.0,47,0.00,CLR,,0.00,WeatherDisplay:10.37,2013-09-30 01:40:00,
2013-09-29 17:45:00,51.6,31.5,29.24,SSW,202,0.0,0.0,46,0.00,CLR,,0.00,WeatherDisplay:10.37,2013-09-30 01:45:00,
2013-09-29 17:50:00,51.4,31.3,29.24,SSW,202,0.0,0.0,46,0.00,CLR,,0.00,WeatherDisplay:10.37,2013-09-30 01:50:00,
2013-09-29 17:55:00,51.1,31.0,29.24,SSW,202,0.0,0.0,46,0.00,CLR,,0.00,WeatherDisplay:10.37,2013-09-30 01:55:00,
2013-09-29 18:00:00,51.1,31.5,29.24,SSW,202,0.0,0.0,47,0.00,CLR,,0.00,WeatherDisplay:10.37,2013-09-30 02:00:00,
2013-09-29 18:05:00,50.9,30.8,29.24,SSW,202,0.0,0.0,46,0.00,CLR,,0.00,WeatherDisplay:10.37,2013-09-30 02:05:00,
2013-09-29 18:10:00,50.9,31.4,29.24,SSW,202,0.0,0.0,47,0.00,CLR,,0.00,WeatherDisplay:10.37,2013-09-30 02:10:00,
2013-09-29 18:15:00,50.7,31.2,29.24,SSW,202,0.0,0.0,47,0.00,CLR,,0.00,WeatherDisplay:10.37,2013-09-30 02:15:00,
2013-09-29 18:20:00,50.5,31.0,29.24,SSW,202,0.0,0.0,47,0.00,CLR,,0.00,WeatherDisplay:10.37,2013-09-30 02:20:00,
2013-09-29 18:25:00,50.4,30.9,29.24,SSW,202,0.0,0.0,47,0.00,CLR,,0.00,WeatherDisplay:10.37,2013-09-30 02:25:00,
2013-09-29 18:30:00,50.0,30.5,29.24,SSW,202,0.0,0.0,47,0.00,CLR,,0.00,WeatherDisplay:10.37,2013-09-30 02:30:00,
2013-09-29 18:35:00,49.8,30.9,29.24,SSW,202,0.0,0.0,48,0.00,CLR,,0.00,WeatherDisplay:10.37,2013-09-30 02:35:00,
2013-09-29 18:40:00,49.5,31.1,29.24,SSW,202,0.0,0.0,49,0.00,CLR,,0.00,WeatherDisplay:10.37,2013-09-30 02:40:00,
2013-09-29 18:45:00,49.5,31.6,29.24,SSW,202,0.0,0.0,50,0.00,CLR,,0.00,WeatherDisplay:10.37,2013-09-30 02:45:00,
2013-09-29 18:50:00,49.5,31.1,29.24,SSW,202,0.0,0.0,49,0.00,CLR,,0.00,WeatherDisplay:10.37,2013-09-30 02:50:00,
2013-09-29 18:55:00,49.3,30.9,29.24,SSW,202,0.0,0.0,49,0.00,CLR,,0.00,WeatherDisplay:10.37,2013-09-30 02:55:00,
2013-09-29 19:00:00,49.1,31.2,29.24,SSW,202,0.0,0.0,50,0.00,CLR,,0.00,WeatherDisplay:10.37,2013-09-30 03:00:00,
2013-09-29 19:05:00,48.9,31.1,29.24,SSW,202,0.0,0.0,50,0.00,CLR,,0.00,WeatherDisplay:10.37,2013-09-30 03:05:00,
2013-09-29 19:11:00,48.7,31.4,29.24,SSW,202,0.0,0.0,51,0.00,CLR,,0.00,WeatherDisplay:10.37,2013-09-30 03:11:00,
2013-09-29 19:16:00,48.6,31.2,29.24,SSW,202,0.0,0.0,51,0.00,CLR,,0.00,WeatherDisplay:10.37,2013-09-30 03:16:00,
2013-09-29 19:21:00,48.4,31.1,29.24,SSW,202,0.0,0.0,51,0.00,CLR,,0.00,WeatherDisplay:10.37,2013-09-30 03:21:00,
2013-09-29 19:26:00,47.8,31.0,29.24,SSW,202,0.0,0.0,52,0.00,CLR,,0.00,WeatherDisplay:10.37,2013-09-30 03:26:00,
2013-09-29 19:31:00,47.7,31.4,29.24,SSW,202,0.0,0.0,53,0.00,CLR,,0.00,WeatherDisplay:10.37,2013-09-30 03:31:00,
2013-09-29 19:36:00,48.2,28.9,29.24,SSW,202,0.0,0.0,47,0.00,CLR,,0.00,WeatherDisplay:10.37,2013-09-30 03:36:00,
2013-09-29 19:41:00,48.6,29.2,29.24,SSW,202,0.0,0.0,47,0.00,CLR,,0.00,WeatherDisplay:10.37,2013-09-30 03:41:00,
2013-09-29 19:46:00,48.7,28.9,29.24,SSW,202,0.0,0.0,46,0.00,CLR,,0.00,WeatherDisplay:10.37,2013-09-30 03:46:00,
2013-09-29 19:51:00,48.7,28.9,29.24,SSW,202,0.0,0.0,46,0.00,CLR,,0.00,WeatherDisplay:10.37,2013-09-30 03:51:00,
2013-09-29 19:56:00,48.6,28.2,29.24,SSW,202,0.0,0.0,45,0.00,CLR,,0.00,WeatherDisplay:10.37,2013-09-30 03:56:00,
2013-09-29 20:01:00,48.4,28.5,29.26,SSW,202,0.0,0.0,46,0.00,CLR,,0.00,WeatherDisplay:10.37,2013-09-30 04:01:00,
2013-09-29 20:02:00,48.4,28.5,29.26,SSW,202,0.0,0.0,46,0.00,CLR,,0.00,WeatherDisplay:10.37,2013-09-30 04:02:00,
2013-09-29 20:03:00,48.4,28.5,29.26,SSW,202,0.0,0.0,46,0.00,CLR,,0.00,WeatherDisplay:10.37,2013-09-30 04:03:00,
2013-09-29 20:04:00,48.4,28.0,29.26,SSW,202,0.0,0.0,45,0.00,CLR,,0.00,WeatherDisplay:10.37,2013-09-30 04:04:00,
2013-09-29 20:09:00,48.4,28.0,29.26,SSW,202,0.0,0.0,45,0.00,CLR,,0.00,WeatherDisplay:10.37,2013-09-30 04:09:00,
2013-09-29 20:14:00,48.4,28.0,29.26,SSW,202,0.0,0.0,45,0.00,CLR,,0.00,WeatherDisplay:10.37,2013-09-30 04:14:00,
2013-09-29 20:15:00,48.2,28.4,29.26,SSW,202,0.0,0.0,46,0.00,CLR,,0.00,WeatherDisplay:10.37,2013-09-30 04:15:00,
2013-09-29 20:18:00,48.4,27.4,29.26,SSW,202,0.0,0.0,44,0.00,CLR,,0.00,WeatherDisplay:10.37,2013-09-30 04:18:00,
2013-09-29 20:23:00,48.4,28.0,29.26,SSW,202,0.0,0.0,45,0.00,CLR,,0.00,WeatherDisplay:10.37,2013-09-30 04:23:00,
2013-09-29 20:28:00,48.2,27.8,29.26,SSW,202,0.0,0.0,45,0.00,CLR,,0.00,WeatherDisplay:10.37,2013-09-30 04:28:00,
2013-09-29 20:33:00,48.0,28.2,29.26,SSW,202,0.0,0.0,46,0.00,CLR,,0.00,WeatherDisplay:10.37,2013-09-30 04:33:00,
2013-09-29 20:38:00,47.8,28.6,29.26,SSW,202,0.0,0.0,47,0.00,CLR,,0.00,WeatherDisplay:10.37,2013-09-30 04:38:00,
2013-09-29 20:43:00,47.7,28.4,29.26,SSW,202,0.0,0.0,47,0.00,CLR,,0.00,WeatherDisplay:10.37,2013-09-30 04:43:00,
2013-09-29 20:48:00,47.7,28.4,29.26,SSW,202,0.0,0.0,47,0.00,CLR,,0.00,WeatherDisplay:10.37,2013-09-30 04:48:00,
2013-09-29 20:53:00,47.5,28.2,29.26,SSW,202,0.0,0.0,47,0.00,CLR,,0.00,WeatherDisplay:10.37,2013-09-30 04:53:00,
2013-09-29 20:58:00,47.1,28.4,29.26,SSW,202,0.0,0.0,48,0.00,CLR,,0.00,WeatherDisplay:10.37,2013-09-30 04:58:00,
2013-09-29 21:03:00,46.8,28.1,29.26,SSW,202,0.0,0.0,48,0.00,CLR,,0.00,WeatherDisplay:10.37,2013-09-30 05:03:00,
2013-09-29 21:08:00,46.8,28.1,29.26,SSW,202,0.0,0.0,48,0.00,CLR,,0.00,WeatherDisplay:10.37,2013-09-30 05:08:00,
2013-09-29 21:13:00,46.6,27.9,29.26,SSW,202,0.0,0.0,48,0.00,CLR,,0.00,WeatherDisplay:10.37,2013-09-30 05:13:00,
2013-09-29 21:18:00,46.8,28.1,29.26,SSW,202,0.0,0.0,48,0.00,CLR,,0.00,WeatherDisplay:10.37,2013-09-30 05:18:00,
2013-09-29 21:23:00,46.8,28.1,29.26,SSW,202,0.0,0.0,48,0.00,CLR,,0.00,WeatherDisplay:10.37,2013-09-30 05:23:00,
2013-09-29 21:28:00,46.8,28.1,29.26,SSW,202,0.0,0.0,48,0.00,CLR,,0.00,WeatherDisplay:10.37,2013-09-30 05:28:00,
2013-09-29 21:33:00,46.8,28.1,29.26,SSW,202,0.0,0.0,48,0.00,CLR,,0.00,WeatherDisplay:10.37,2013-09-30 05:33:00,
2013-09-29 21:38:00,46.6,27.9,29.26,SSW,202,0.0,0.0,48,0.00,CLR,,0.00,WeatherDisplay:10.37,2013-09-30 05:38:00,
2013-09-29 21:43:00,46.6,27.9,29.26,SSW,202,0.0,0.0,48,0.00,CLR,,0.00,WeatherDisplay:10.37,2013-09-30 05:43:00,
2013-09-29 21:48:00,46.4,27.8,29.26,SSW,202,0.0,0.0,48,0.00,CLR,,0.00,WeatherDisplay:10.37,2013-09-30 05:48:00,
2013-09-29 21:53:00,46.4,27.8,29.26,SSW,202,0.0,0.0,48,0.00,CLR,,0.00,WeatherDisplay:10.37,2013-09-30 05:53:00,
2013-09-29 21:58:00,46.4,27.8,29.26,SSW,202,0.0,0.0,48,0.00,CLR,,0.00,WeatherDisplay:10.37,2013-09-30 05:58:00,
2013-09-29 22:03:00,46.0,27.4,29.26,SSW,202,0.0,0.0,48,0.00,CLR,,0.00,WeatherDisplay:10.37,2013-09-30 06:03:00,
2013-09-29 22:08:00,45.9,27.3,29.26,SSW,202,0.0,0.0,48,0.00,CLR,,0.00,WeatherDisplay:10.37,2013-09-30 06:08:00,
2013-09-29 22:13:00,45.9,27.3,29.26,SSW,202,0.0,0.0,48,0.00,CLR,,0.00,WeatherDisplay:10.37,2013-09-30 06:13:00,
2013-09-29 22:18:00,45.5,26.9,29.26,SSW,202,0.0,0.0,48,0.00,CLR,,0.00,WeatherDisplay:10.37,2013-09-30 06:18:00,
2013-09-29 22:23:00,45.5,26.9,29.26,SSW,202,0.0,0.0,48,0.00,CLR,,0.00,WeatherDisplay:10.37,2013-09-30 06:23:00,
2013-09-29 22:28:00,45.3,27.3,29.26,SSW,202,0.0,0.0,49,0.00,CLR,,0.00,WeatherDisplay:10.37,2013-09-30 06:28:00,
2013-09-29 22:33:00,45.0,26.9,29.29,SSW,202,0.0,0.0,49,0.00,CLR,,0.00,WeatherDisplay:10.37,2013-09-30 06:33:00,
2013-09-29 22:38:00,44.8,26.8,29.29,SSW,202,0.0,0.0,49,0.00,CLR,,0.00,WeatherDisplay:10.37,2013-09-30 06:38:00,
2013-09-29 22:43:00,45.1,27.1,29.29,SSW,202,0.0,0.0,49,0.00,CLR,,0.00,WeatherDisplay:10.37,2013-09-30 06:43:00,
2013-09-29 22:48:00,45.1,26.6,29.29,SSW,202,0.0,0.0,48,0.00,CLR,,0.00,WeatherDisplay:10.37,2013-09-30 06:48:00,
2013-09-29 22:53:00,45.3,26.8,29.29,SSW,202,0.0,0.0,48,0.00,CLR,,0.00,WeatherDisplay:10.37,2013-09-30 06:53:00,
2013-09-29 22:58:00,45.0,26.4,29.29,SSW,202,0.0,0.0,48,0.00,CLR,,0.00,WeatherDisplay:10.37,2013-09-30 06:58:00,
2013-09-29 23:03:00,44.6,26.6,29.29,SSW,202,0.0,0.0,49,0.00,CLR,,0.00,WeatherDisplay:10.37,2013-09-30 07:03:00,
2013-09-29 23:08:00,44.6,26.6,29.29,SSW,202,0.0,0.0,49,0.00,CLR,,0.00,WeatherDisplay:10.37,2013-09-30 07:08:00,
2013-09-29 23:13:00,45.1,26.6,29.29,SSW,202,0.0,0.0,48,0.00,CLR,,0.00,WeatherDisplay:10.37,2013-09-30 07:13:00,
2013-09-29 23:18:00,45.1,26.6,29.29,SSW,202,0.0,0.0,48,0.00,CLR,,0.00,WeatherDisplay:10.37,2013-09-30 07:18:00,
2013-09-29 23:23:00,44.8,25.8,29.29,SSW,202,0.0,0.0,47,0.00,CLR,,0.00,WeatherDisplay:10.37,2013-09-30 07:23:00,
2013-09-29 23:28:00,44.6,26.1,29.29,SSW,202,0.0,0.0,48,0.00,CLR,,0.00,WeatherDisplay:10.37,2013-09-30 07:28:00,
2013-09-29 23:33:00,44.2,26.3,29.29,SSW,202,0.0,0.0,49,0.00,CLR,,0.00,WeatherDisplay:10.37,2013-09-30 07:33:00,
2013-09-29 23:38:00,43.9,25.9,29.29,SSW,202,0.0,0.0,49,0.00,CLR,,0.00,WeatherDisplay:10.37,2013-09-30 07:38:00,
2013-09-29 23:43:00,44.1,25.6,29.29,SSW,202,0.0,0.0,48,0.00,CLR,,0.00,WeatherDisplay:10.37,2013-09-30 07:43:00,
2013-09-29 23:48:00,44.4,25.9,29.29,SSW,202,0.0,0.0,48,0.00,CLR,,0.00,WeatherDisplay:10.37,2013-09-30 07:48:00,
2013-09-29 23:53:00,44.2,25.8,29.29,SSW,202,0.0,0.0,48,0.00,CLR,,0.00,WeatherDisplay:10.37,2013-09-30 07:53:00,
2013-09-29 23:58:00,44.1,25.6,29.29,East,90,1.1,1.1,48,0.00,CLR,,0.00,WeatherDisplay:10.37,2013-09-30 07:58:00,